createdAt,value
2023-12-09T00:00:26.864Z,101167.84
2023-12-09T00:03:15.813Z,101165.28
2023-12-09T00:05:43.372Z,101166.88
2023-12-09T00:08:10.976Z,101134.28
2023-12-09T00:10:38.795Z,101115.47
2023-12-09T00:13:06.223Z,101159.56
2023-12-09T00:15:33.535Z,101134.00
2023-12-09T00:18:01.184Z,101158.00
2023-12-09T00:20:30.072Z,101059.47
2023-12-09T00:22:57.779Z,101143.44
2023-12-09T00:25:25.410Z,101140.00
2023-12-09T00:27:53.142Z,101151.13
2023-12-09T00:30:20.360Z,101161.13
2023-12-09T00:32:48.384Z,101166.28
2023-12-09T00:35:15.738Z,101150.84
2023-12-09T00:37:44.709Z,101150.22
2023-12-09T00:40:13.164Z,101108.81
2023-12-09T00:42:40.836Z,101154.47
2023-12-09T00:45:08.564Z,101103.91
2023-12-09T00:47:36.013Z,101144.00
2023-12-09T00:50:03.420Z,101161.91
2023-12-09T00:52:30.736Z,101155.25
2023-12-09T00:54:59.439Z,101137.69
2023-12-09T00:57:26.715Z,101158.16
2023-12-09T00:59:54.127Z,101169.63
2023-12-09T01:02:21.572Z,101115.31
2023-12-09T01:04:48.651Z,101143.34
2023-12-09T01:07:16.057Z,101170.47
2023-12-09T01:09:43.301Z,101132.88
2023-12-09T01:12:12.092Z,101148.75
2023-12-09T01:14:39.279Z,101126.72
2023-12-09T01:17:07.443Z,101166.00
2023-12-09T01:19:34.704Z,101168.56
2023-12-09T01:22:02.204Z,101167.59
2023-12-09T01:24:29.503Z,101164.91
2023-12-09T01:26:56.958Z,101085.00
2023-12-09T01:29:25.483Z,101122.13
2023-12-09T01:31:52.870Z,101130.88
2023-12-09T01:34:20.214Z,101167.38
2023-12-09T01:36:47.811Z,101168.00
2023-12-09T01:39:15.083Z,101149.19
2023-12-09T01:41:42.605Z,101155.84
2023-12-09T01:44:09.758Z,101114.16
2023-12-09T01:46:39.743Z,101152.13
2023-12-09T01:49:07.496Z,101151.28
2023-12-09T01:51:36.499Z,101148.03
2023-12-09T01:54:03.909Z,101149.78
2023-12-09T01:56:31.699Z,101147.31
2023-12-09T01:58:58.919Z,101143.94
2023-12-09T02:01:26.867Z,101132.94
2023-12-09T02:03:55.478Z,101117.94
2023-12-09T02:06:23.087Z,101139.69
2023-12-09T02:08:50.617Z,101116.38
2023-12-09T02:11:24.332Z,101103.44
2023-12-09T02:13:58.319Z,101146.69
2023-12-09T02:16:31.355Z,101127.09
2023-12-09T02:19:01.911Z,101139.69
2023-12-09T02:21:29.536Z,101138.75
2023-12-09T02:23:58.284Z,101107.25
2023-12-09T02:26:27.376Z,101149.19
2023-12-09T02:29:02.043Z,101147.44
2023-12-09T02:31:33.007Z,101122.59
2023-12-09T02:34:04.585Z,101151.91
2023-12-09T02:36:34.260Z,101108.59
2023-12-09T02:39:05.021Z,101149.47
2023-12-09T02:41:33.944Z,101141.72
2023-12-09T02:44:01.216Z,101130.81
2023-12-09T02:46:28.662Z,101145.97
2023-12-09T02:48:55.880Z,101105.19
2023-12-09T02:51:23.337Z,101143.19
2023-12-09T02:53:50.847Z,101131.75
2023-12-09T02:56:19.725Z,101123.94
2023-12-09T02:58:46.857Z,101145.22
2023-12-09T03:01:14.192Z,101145.34
2023-12-09T03:03:41.421Z,101153.28
2023-12-09T03:06:08.968Z,101129.56
2023-12-09T03:08:36.065Z,101158.66
2023-12-09T03:11:03.632Z,101114.66
2023-12-09T03:13:32.337Z,101157.78
2023-12-09T03:16:00.853Z,101148.16
2023-12-09T03:18:28.110Z,101125.50
2023-12-09T03:20:55.522Z,101145.34
2023-12-09T03:23:22.679Z,101052.22
2023-12-09T03:25:50.067Z,101153.34
2023-12-09T03:28:17.082Z,101152.53
2023-12-09T03:30:45.930Z,101154.41
2023-12-09T03:33:13.511Z,101144.78
2023-12-09T03:35:41.006Z,101116.84
2023-12-09T03:38:08.073Z,101150.72
2023-12-09T03:40:35.449Z,101130.53
2023-12-09T03:43:02.582Z,101131.66
2023-12-09T03:45:29.948Z,101163.03
2023-12-09T03:47:58.781Z,101159.50
2023-12-09T03:50:25.986Z,101152.47
2023-12-09T03:52:53.317Z,101155.97
2023-12-09T03:55:21.074Z,101129.84
2023-12-09T03:57:48.325Z,101129.63
2023-12-09T04:00:16.564Z,101171.47
2023-12-09T04:02:43.765Z,101072.81
2023-12-09T04:05:12.671Z,101166.22
2023-12-09T04:07:39.773Z,101171.31
2023-12-09T04:10:10.230Z,101166.00
2023-12-09T04:12:37.599Z,101165.09
2023-12-09T04:15:06.076Z,101114.88
2023-12-09T04:17:33.242Z,101126.13
2023-12-09T04:20:00.747Z,101170.31
2023-12-09T04:22:29.446Z,101133.81
2023-12-09T04:24:57.006Z,101133.59
2023-12-09T04:27:24.178Z,101175.28
2023-12-09T04:29:57.830Z,101175.28
2023-12-09T04:32:25.215Z,101084.78
2023-12-09T04:34:52.729Z,101183.31
2023-12-09T04:37:19.834Z,101082.88
2023-12-09T04:39:48.564Z,101181.72
2023-12-09T04:42:15.707Z,101181.72
2023-12-09T04:44:43.094Z,101178.28
2023-12-09T04:47:10.266Z,101181.72
2023-12-09T04:49:37.870Z,101155.16
2023-12-09T04:52:05.954Z,101162.25
2023-12-09T04:54:33.459Z,101174.09
2023-12-09T04:57:02.138Z,101124.56
2023-12-09T04:59:29.707Z,101170.31
2023-12-09T05:01:56.882Z,101178.91
2023-12-09T05:04:24.617Z,101139.88
2023-12-09T05:06:51.932Z,101147.31
2023-12-09T05:09:19.471Z,101160.13
2023-12-09T05:11:46.624Z,101169.63
2023-12-09T05:14:15.469Z,101159.56
2023-12-09T05:16:42.542Z,101167.28
2023-12-09T05:19:10.026Z,101176.75
2023-12-09T05:21:37.329Z,101175.06
2023-12-09T05:24:05.755Z,101162.50
2023-12-09T05:26:33.229Z,101181.34
2023-12-09T05:29:00.660Z,101157.16
2023-12-09T05:31:29.297Z,101149.47
2023-12-09T05:33:56.780Z,101184.03
2023-12-09T05:36:23.943Z,101184.19
2023-12-09T05:38:51.344Z,101191.31
2023-12-09T05:41:18.458Z,101165.00
2023-12-09T05:43:45.863Z,101145.25
2023-12-09T05:46:19.777Z,101186.03
2023-12-09T05:48:49.218Z,101189.47
2023-12-09T05:51:16.456Z,101189.69
2023-12-09T05:53:43.897Z,101185.84
2023-12-09T05:56:13.059Z,101199.44
2023-12-09T05:58:41.064Z,101204.69
2023-12-09T06:01:09.315Z,101209.00
2023-12-09T06:03:37.171Z,101158.59
2023-12-09T06:06:07.378Z,101170.78
2023-12-09T06:08:34.930Z,101210.91
2023-12-09T06:11:02.075Z,101098.50
2023-12-09T06:13:29.584Z,101163.00
2023-12-09T06:15:56.657Z,101158.69
2023-12-09T06:18:24.288Z,101148.94
2023-12-09T06:20:51.381Z,101191.78
2023-12-09T06:23:20.309Z,101163.63
2023-12-09T06:25:47.633Z,101203.50
2023-12-09T06:28:15.047Z,101167.13
2023-12-09T06:30:42.078Z,101209.44
2023-12-09T06:33:09.792Z,101215.47
2023-12-09T06:35:36.859Z,101210.03
2023-12-09T06:38:04.139Z,101218.47
2023-12-09T06:40:32.493Z,101213.88
2023-12-09T06:42:59.918Z,101202.41
2023-12-09T06:45:27.205Z,101221.31
2023-12-09T06:47:56.420Z,101224.66
2023-12-09T06:50:23.626Z,101217.50
2023-12-09T06:52:51.042Z,101210.88
2023-12-09T06:55:18.084Z,101217.31
2023-12-09T06:57:46.808Z,101222.13
2023-12-09T07:00:15.868Z,101228.78
2023-12-09T07:02:52.991Z,101230.13
2023-12-09T07:05:33.653Z,101211.94
2023-12-09T07:08:01.372Z,101228.34
2023-12-09T07:10:28.442Z,101234.06
2023-12-09T07:12:57.393Z,101226.13
2023-12-09T07:15:24.647Z,101232.28
2023-12-09T07:17:52.690Z,101241.81
2023-12-09T07:20:35.103Z,101243.63
2023-12-09T07:23:07.909Z,101244.13
2023-12-09T07:25:37.952Z,101243.84
2023-12-09T07:28:11.923Z,101230.63
2023-12-09T07:30:39.463Z,101229.09
2023-12-09T07:33:07.037Z,101215.97
2023-12-09T07:35:34.689Z,101231.34
2023-12-09T07:38:02.155Z,101220.00
2023-12-09T07:40:29.358Z,101233.91
2023-12-09T07:42:56.689Z,101181.78
2023-12-09T07:45:25.285Z,101230.19
2023-12-09T07:47:52.759Z,101236.78
2023-12-09T07:50:20.342Z,101233.22
2023-12-09T07:52:47.944Z,101234.59
2023-12-09T07:55:15.338Z,101236.84
2023-12-09T07:57:42.781Z,101243.19
2023-12-09T08:00:11.468Z,101241.31
2023-12-09T08:02:43.500Z,101236.22
2023-12-09T08:05:10.758Z,101250.06
2023-12-09T08:07:38.326Z,101253.19
2023-12-09T08:10:07.544Z,101235.19
2023-12-09T08:12:36.560Z,101239.25
2023-12-09T08:15:06.369Z,101212.97
2023-12-09T08:17:33.939Z,101237.69
2023-12-09T08:20:07.866Z,101250.25
2023-12-09T08:22:43.448Z,101209.22
2023-12-09T08:25:11.297Z,101234.81
2023-12-09T08:27:43.231Z,101218.53
2023-12-09T08:30:12.146Z,101249.31
2023-12-09T08:32:40.822Z,101258.31
2023-12-09T08:35:10.791Z,101194.72
2023-12-09T08:37:39.345Z,101224.59
2023-12-09T08:40:12.527Z,101257.50
2023-12-09T08:42:41.073Z,101253.00
2023-12-09T08:45:10.567Z,101231.22
2023-12-09T08:47:41.057Z,101241.66
2023-12-09T08:50:21.958Z,101262.84
2023-12-09T08:52:52.027Z,101262.88
2023-12-09T08:55:19.567Z,101250.78
2023-12-09T08:57:47.374Z,101212.13
2023-12-09T09:00:20.283Z,101235.72
2023-12-09T09:02:50.473Z,101246.63
2023-12-09T09:05:19.292Z,101239.56
2023-12-09T09:07:46.694Z,101236.00
2023-12-09T09:10:14.613Z,101206.22
2023-12-09T09:12:44.763Z,101218.56
2023-12-09T09:15:17.334Z,101220.38
2023-12-09T09:17:44.938Z,101169.47
2023-12-09T09:20:12.294Z,101206.25
2023-12-09T09:22:45.416Z,101205.50
2023-12-09T09:25:14.674Z,101195.47
2023-12-09T09:27:45.384Z,101206.88
2023-12-09T09:30:14.562Z,101201.28
2023-12-09T09:32:43.814Z,101200.59
2023-12-09T09:35:11.024Z,101203.41
2023-12-09T09:37:38.570Z,101200.84
2023-12-09T09:40:14.682Z,101188.69
2023-12-09T09:42:51.134Z,101187.88
2023-12-09T09:45:27.215Z,101182.47
2023-12-09T09:48:07.369Z,101144.75
2023-12-09T09:50:42.090Z,101170.50
2023-12-09T09:53:12.202Z,101168.72
2023-12-09T09:55:41.775Z,101168.72
2023-12-09T09:58:10.095Z,101174.88
2023-12-09T10:00:37.647Z,101075.50
2023-12-09T10:03:05.314Z,101162.75
2023-12-09T10:05:32.829Z,101145.84
2023-12-09T10:08:01.789Z,101043.91
2023-12-09T10:10:31.087Z,101115.84
2023-12-09T10:12:59.896Z,101151.09
2023-12-09T10:15:26.977Z,101158.78
2023-12-09T10:17:59.105Z,101158.66
2023-12-09T10:20:26.673Z,101160.88
2023-12-09T10:22:54.067Z,101150.22
2023-12-09T10:25:22.483Z,101109.91
2023-12-09T10:27:50.193Z,101118.91
2023-12-09T10:30:22.088Z,101130.03
2023-12-09T10:32:49.710Z,101137.19
2023-12-09T10:35:17.829Z,101133.81
2023-12-09T10:37:45.331Z,101094.56
2023-12-09T10:40:14.497Z,101131.03
2023-12-09T10:42:42.363Z,101140.34
2023-12-09T10:45:09.953Z,101134.00
2023-12-09T10:47:39.000Z,101094.25
2023-12-09T10:50:07.227Z,101124.06
2023-12-09T10:52:37.088Z,101095.53
2023-12-09T10:55:06.657Z,101116.56
2023-12-09T10:57:34.876Z,101058.41
2023-12-09T11:00:09.525Z,101029.53
2023-12-09T11:02:39.566Z,101119.84
2023-12-09T11:05:08.584Z,101108.72
2023-12-09T11:07:37.071Z,101080.06
2023-12-09T11:10:07.619Z,101111.91
2023-12-09T11:12:36.812Z,101022.38
2023-12-09T11:15:08.970Z,101115.00
2023-12-09T11:17:39.062Z,101099.78
2023-12-09T11:20:11.234Z,101107.59
2023-12-09T11:22:39.429Z,101012.78
2023-12-09T11:25:08.784Z,101092.09
2023-12-09T11:27:37.265Z,101096.44
2023-12-09T11:30:06.236Z,101006.31
2023-12-09T11:32:34.131Z,101098.69
2023-12-09T11:35:03.158Z,101100.16
2023-12-09T11:37:32.270Z,101081.72
2023-12-09T11:40:01.422Z,101047.66
2023-12-09T11:42:29.920Z,101039.25
2023-12-09T11:44:57.453Z,101085.09
2023-12-09T11:47:25.349Z,101067.34
2023-12-09T11:49:53.296Z,101068.84
2023-12-09T11:52:21.961Z,101087.97
2023-12-09T11:54:59.882Z,101043.47
2023-12-09T11:57:28.842Z,101033.19
2023-12-09T11:59:56.537Z,101010.94
2023-12-09T12:02:24.049Z,101057.88
2023-12-09T12:04:51.231Z,101064.09
2023-12-09T12:07:18.653Z,101046.88
2023-12-09T12:09:47.553Z,101077.00
2023-12-09T12:12:14.761Z,101073.41
2023-12-09T12:14:41.961Z,101055.66
2023-12-09T12:17:10.484Z,101057.88
2023-12-09T12:19:37.923Z,101065.69
2023-12-09T12:22:05.816Z,101052.56
2023-12-09T12:24:41.420Z,101053.44
2023-12-09T12:27:10.537Z,101028.63
2023-12-09T12:29:38.182Z,101065.06
2023-12-09T12:32:07.081Z,101067.00
2023-12-09T12:34:34.682Z,101057.66
2023-12-09T12:37:02.933Z,101065.56
2023-12-09T12:39:30.066Z,101062.59
2023-12-09T12:41:57.604Z,101029.53
2023-12-09T12:44:26.806Z,101060.59
2023-12-09T12:46:54.385Z,101064.94
2023-12-09T12:49:21.514Z,101064.59
2023-12-09T12:51:51.022Z,101046.84
2023-12-09T12:54:18.887Z,101065.50
2023-12-09T12:56:46.438Z,101052.38
2023-12-09T12:59:13.540Z,101058.56
2023-12-09T13:01:42.527Z,101057.06
2023-12-09T13:04:10.807Z,101053.03
2023-12-09T13:06:39.676Z,101051.47
2023-12-09T13:09:09.786Z,101039.31
2023-12-09T13:11:37.266Z,101054.19
2023-12-09T13:14:05.237Z,101059.38
2023-12-09T13:16:33.000Z,101044.47
2023-12-09T13:19:01.894Z,101015.13
2023-12-09T13:21:29.481Z,101055.28
2023-12-09T13:23:56.735Z,101049.41
2023-12-09T13:26:24.344Z,101055.50
2023-12-09T13:28:51.565Z,101038.72
2023-12-09T13:31:19.127Z,101057.75
2023-12-09T13:33:46.396Z,101057.97
2023-12-09T13:36:16.360Z,101051.84
2023-12-09T13:38:43.855Z,101048.34
2023-12-09T13:41:11.335Z,100994.97
2023-12-09T13:43:38.574Z,101060.50
2023-12-09T13:46:06.626Z,101060.06
2023-12-09T13:48:36.041Z,101018.00
2023-12-09T13:51:06.204Z,101054.25
2023-12-09T13:53:35.135Z,101053.91
2023-12-09T13:56:02.562Z,101042.81
2023-12-09T13:58:29.885Z,101051.03
2023-12-09T14:01:01.959Z,101037.78
2023-12-09T14:03:29.714Z,101057.22
2023-12-09T14:06:00.647Z,101052.47
2023-12-09T14:08:28.562Z,101063.84
2023-12-09T14:10:58.466Z,101061.41
2023-12-09T14:13:26.022Z,100995.56
2023-12-09T14:15:54.253Z,101052.41
2023-12-09T14:18:21.609Z,101071.50
2023-12-09T14:20:49.247Z,101074.38
2023-12-09T14:23:16.325Z,101060.56
2023-12-09T14:25:43.962Z,101067.25
2023-12-09T14:28:12.781Z,100976.28
2023-12-09T14:30:40.274Z,101084.19
2023-12-09T14:33:07.819Z,100992.28
2023-12-09T14:35:35.469Z,101076.09
2023-12-09T14:38:02.686Z,101072.81
2023-12-09T14:40:30.872Z,101073.25
2023-12-09T14:42:58.031Z,101065.19
2023-12-09T14:45:26.853Z,101066.88
2023-12-09T14:48:01.195Z,100997.09
2023-12-09T14:50:32.726Z,100968.19
2023-12-09T14:53:00.307Z,101049.00
2023-12-09T14:55:27.759Z,100969.31
2023-12-09T14:57:55.270Z,101061.13
2023-12-09T15:00:23.537Z,100969.38
2023-12-09T15:02:52.187Z,101028.84
2023-12-09T15:05:19.835Z,100972.38
2023-12-09T15:07:47.264Z,101063.09
2023-12-09T15:10:15.167Z,101063.34
2023-12-09T15:12:43.532Z,101068.63
2023-12-09T15:15:12.527Z,101071.19
2023-12-09T15:17:39.946Z,101070.50
2023-12-09T15:20:10.693Z,100979.28
2023-12-09T15:22:38.451Z,101075.59
2023-12-09T15:25:07.137Z,101043.59
2023-12-09T15:27:34.360Z,101082.22
2023-12-09T15:30:05.355Z,101082.59
2023-12-09T15:32:33.756Z,100964.78
2023-12-09T15:35:03.633Z,101050.84
2023-12-09T15:37:33.268Z,101007.19
2023-12-09T15:40:00.931Z,101067.75
2023-12-09T15:42:28.431Z,101070.09
2023-12-09T15:44:57.790Z,101043.59
2023-12-09T15:47:25.406Z,101046.97
2023-12-09T15:49:53.749Z,101056.38
2023-12-09T15:52:20.887Z,101025.94
2023-12-09T15:54:50.256Z,101047.41
2023-12-09T15:57:17.796Z,101072.41
2023-12-09T15:59:47.524Z,100970.91
2023-12-09T16:02:15.087Z,101064.84
2023-12-09T16:04:42.748Z,100981.75
2023-12-09T16:07:09.938Z,101062.41
2023-12-09T16:09:41.173Z,101052.56
2023-12-09T16:12:13.672Z,100956.09
2023-12-09T16:14:41.113Z,101066.44
2023-12-09T16:17:09.042Z,101058.56
2023-12-09T16:19:36.742Z,101048.50
2023-12-09T16:22:04.812Z,101000.81
2023-12-09T16:24:32.541Z,101064.69
2023-12-09T16:26:59.727Z,101046.13
2023-12-09T16:29:29.614Z,101065.69
2023-12-09T16:31:56.839Z,101074.44
2023-12-09T16:34:24.344Z,101024.88
2023-12-09T16:36:51.718Z,100954.13
2023-12-09T16:39:19.030Z,101037.88
2023-12-09T16:41:46.258Z,101068.19
2023-12-09T16:44:14.056Z,101048.19
2023-12-09T16:46:42.607Z,100984.09
2023-12-09T16:49:10.386Z,100967.66
2023-12-09T16:51:37.485Z,101060.66
2023-12-09T16:54:05.093Z,100963.34
2023-12-09T16:56:32.416Z,101046.50
2023-12-09T16:59:00.285Z,101063.38
2023-12-09T17:01:27.493Z,100956.56
2023-12-09T17:03:56.585Z,101001.66
2023-12-09T17:06:23.795Z,101058.63
2023-12-09T17:08:51.247Z,100999.09
2023-12-09T17:11:18.501Z,101047.50
2023-12-09T17:13:46.237Z,101028.84
2023-12-09T17:16:13.884Z,101041.16
2023-12-09T17:18:41.404Z,101039.53
2023-12-09T17:21:10.161Z,100975.38
2023-12-09T17:23:40.907Z,101018.94
2023-12-09T17:26:08.890Z,101008.53
2023-12-09T17:28:36.424Z,101013.69
2023-12-09T17:31:04.333Z,101010.47
2023-12-09T17:33:31.918Z,100973.34
2023-12-09T17:35:59.293Z,101002.00
2023-12-09T17:38:29.576Z,101010.72
2023-12-09T17:40:56.787Z,101017.59
2023-12-09T17:43:24.302Z,101016.50
2023-12-09T17:45:54.427Z,101011.31
2023-12-09T17:48:24.564Z,101003.97
2023-12-09T17:50:51.830Z,101021.16
2023-12-09T17:53:21.327Z,100993.84
2023-12-09T17:55:50.122Z,100996.22
2023-12-09T17:58:17.510Z,100974.38
2023-12-09T18:00:44.903Z,100962.72
2023-12-09T18:03:12.999Z,100986.50
2023-12-09T18:05:40.373Z,100999.72
2023-12-09T18:08:07.896Z,101003.09
2023-12-09T18:10:35.259Z,100984.78
2023-12-09T18:13:04.091Z,100883.66
2023-12-09T18:15:31.945Z,100992.25
2023-12-09T18:18:00.391Z,100982.69
2023-12-09T18:20:27.570Z,100949.06
2023-12-09T18:22:57.945Z,100981.50
2023-12-09T18:25:26.955Z,100977.69
2023-12-09T18:27:54.535Z,100983.53
2023-12-09T18:30:23.880Z,100959.66
2023-12-09T18:32:51.420Z,100978.19
2023-12-09T18:35:19.010Z,100975.63
2023-12-09T18:37:46.538Z,100977.00
2023-12-09T18:40:14.126Z,100972.59
2023-12-09T18:42:41.600Z,100980.22
2023-12-09T18:45:09.541Z,100980.91
2023-12-09T18:47:40.282Z,100989.44
2023-12-09T18:50:07.981Z,100971.88
2023-12-09T18:52:35.318Z,100977.00
2023-12-09T18:55:02.513Z,100971.91
2023-12-09T18:57:31.074Z,100985.16
2023-12-09T18:59:58.265Z,100971.59
2023-12-09T19:02:25.766Z,100975.38
2023-12-09T19:04:54.939Z,100972.91
2023-12-09T19:07:22.529Z,100966.63
2023-12-09T19:09:52.741Z,100963.25
2023-12-09T19:12:20.251Z,100969.81
2023-12-09T19:14:47.696Z,100949.69
2023-12-09T19:17:15.762Z,100975.81
2023-12-09T19:19:43.201Z,100965.25
2023-12-09T19:22:12.207Z,100954.59
2023-12-09T19:24:40.996Z,100966.75
2023-12-09T19:27:11.520Z,100941.84
2023-12-09T19:29:40.626Z,100948.53
2023-12-09T19:32:08.652Z,100949.72
2023-12-09T19:34:36.810Z,100931.41
2023-12-09T19:37:05.288Z,100906.66
2023-12-09T19:39:34.328Z,100910.38
2023-12-09T19:42:01.829Z,100909.66
2023-12-09T19:44:29.493Z,100906.53
2023-12-09T19:46:57.657Z,100835.31
2023-12-09T19:49:25.757Z,100913.56
2023-12-09T19:51:53.318Z,100874.25
2023-12-09T19:54:20.635Z,100901.16
2023-12-09T19:56:50.577Z,100900.19
2023-12-09T19:59:17.683Z,100796.31
2023-12-09T20:01:45.664Z,100845.50
2023-12-09T20:04:12.885Z,100889.28
2023-12-09T20:06:41.461Z,100894.03
2023-12-09T20:09:08.871Z,100880.31
2023-12-09T20:11:36.313Z,100879.38
2023-12-09T20:14:05.001Z,100884.88
2023-12-09T20:16:32.676Z,100787.63
2023-12-09T20:19:00.082Z,100779.28
2023-12-09T20:21:27.674Z,100776.41
2023-12-09T20:23:54.749Z,100829.25
2023-12-09T20:26:22.219Z,100761.69
2023-12-09T20:28:49.542Z,100794.00
2023-12-09T20:31:18.348Z,100774.06
2023-12-09T20:33:45.994Z,100869.78
2023-12-09T20:36:13.604Z,100717.31
2023-12-09T20:38:40.874Z,100756.94
2023-12-09T20:41:10.653Z,100828.47
2023-12-09T20:43:37.991Z,100827.47
2023-12-09T20:46:06.189Z,100843.75
2023-12-09T20:48:34.754Z,100748.31
2023-12-09T20:51:02.267Z,100855.75
2023-12-09T20:53:30.540Z,100856.97
2023-12-09T20:55:58.059Z,100863.25
2023-12-09T20:58:25.412Z,100851.03
2023-12-09T21:00:52.874Z,100855.75
2023-12-09T21:03:20.657Z,100805.91
2023-12-09T21:05:53.835Z,100822.31
2023-12-09T21:08:21.671Z,100763.47
2023-12-09T21:10:49.502Z,100863.19
2023-12-09T21:13:21.691Z,100837.81
2023-12-09T21:15:52.430Z,100757.81
2023-12-09T21:18:21.377Z,100748.41
2023-12-09T21:20:51.053Z,100853.00
2023-12-09T21:23:18.027Z,100855.84
2023-12-09T21:25:49.311Z,100858.78
2023-12-09T21:28:16.443Z,100854.78
2023-12-09T21:30:44.012Z,100833.72
2023-12-09T21:33:11.564Z,100863.59
2023-12-09T21:35:39.134Z,100841.97
2023-12-09T21:38:07.750Z,100852.13
2023-12-09T21:40:35.454Z,100803.41
2023-12-09T21:43:04.390Z,100796.84
2023-12-09T21:45:32.118Z,100827.00
2023-12-09T21:47:59.499Z,100799.25
2023-12-09T21:50:27.008Z,100804.72
2023-12-09T21:52:54.051Z,100799.88
2023-12-09T21:55:25.179Z,100733.47
2023-12-09T21:57:52.528Z,100719.00
2023-12-09T22:00:20.353Z,100790.25
2023-12-09T22:02:48.269Z,100805.31
2023-12-09T22:05:16.056Z,100782.53
2023-12-09T22:07:43.172Z,100797.66
2023-12-09T22:10:10.838Z,100595.41
2023-12-09T22:12:41.406Z,100758.91
2023-12-09T22:15:09.760Z,100761.38
2023-12-09T22:17:38.072Z,100734.16
2023-12-09T22:20:07.404Z,100775.44
2023-12-09T22:22:41.183Z,100725.69
2023-12-09T22:25:13.227Z,100685.94
2023-12-09T22:27:41.905Z,100734.69
2023-12-09T22:30:10.434Z,100756.44
2023-12-09T22:32:38.120Z,100763.84
2023-12-09T22:35:07.006Z,100766.78
2023-12-09T22:37:34.647Z,100726.72
2023-12-09T22:40:02.118Z,100648.78
2023-12-09T22:42:29.797Z,100703.44
2023-12-09T22:44:58.798Z,100668.69
2023-12-09T22:47:26.089Z,100741.31
2023-12-09T22:49:54.083Z,100637.16
2023-12-09T22:52:21.348Z,100623.44
2023-12-09T22:54:49.056Z,100686.78
2023-12-09T22:57:18.340Z,100653.97
2023-12-09T22:59:46.388Z,100663.63
2023-12-09T23:02:15.307Z,100622.97
2023-12-09T23:04:42.980Z,100680.88
2023-12-09T23:07:10.367Z,100620.19
2023-12-09T23:09:38.314Z,100723.41
2023-12-09T23:12:06.841Z,100712.06
2023-12-09T23:14:34.299Z,100733.06
2023-12-09T23:17:01.448Z,100711.66
2023-12-09T23:19:31.550Z,100713.88
2023-12-09T23:21:58.610Z,100606.38
2023-12-09T23:24:26.532Z,100712.03
2023-12-09T23:26:54.923Z,100699.63
2023-12-09T23:29:22.252Z,100687.94
2023-12-09T23:31:49.578Z,100696.78
2023-12-09T23:34:17.669Z,100695.56
2023-12-09T23:36:46.913Z,100546.19
2023-12-09T23:39:14.281Z,100686.41
2023-12-09T23:41:42.824Z,100612.06
2023-12-09T23:44:10.202Z,100622.22
2023-12-09T23:46:37.341Z,100660.97
2023-12-09T23:49:06.375Z,100653.94
2023-12-09T23:51:34.386Z,100640.59
2023-12-09T23:54:04.853Z,100661.56
2023-12-09T23:56:33.153Z,100662.47
2023-12-09T23:59:04.008Z,100615.56
